• Join FlightAware (Why Join?)
  • Login
  • US Flag GB Flag 
04:32 EDT


 

Airport Tracker/Info


-or-


 

Live Flight TrackerFlight Track Log ✈ UAL4108 ✈ 13-Apr-2013 ✈ KLIT - KIAH

Flight Track Log - Related Links

Times and Time Zones

All times are in EDT time to prevent confusion due to time zone crossing. See the UAL4108 flight status page for this flight to view local times or setup timezone preferences in your user account.

Time Position Orientation Groundspeed Altitude Reporting Facility
EDT Latitude Longitude Course Direction KTS MPH feet Rate Location/Type
07:14 34.7411 -92.2147 202° Southwest 151 174 900  Level Memphis Center
07:14 34.7458 -92.1794 81° East 173 199 2,300 2,160 Climbing Memphis Center
07:15 34.7025 -92.1506 151° Southeast 229 264 4,700 2,460 Climbing Memphis Center
07:16 34.6414 -92.1822 203° Southwest 266 306 7,300 2,520 Climbing Memphis Center
07:17 34.4164 -92.4426 190° South  Level Estimated
07:17 34.6081 -92.1942 196° South 257 296 8,500  Level Memphis Center
07:18 34.3381 -92.4968 193° South  Level Estimated
07:18 34.5283 -92.2100 189° South 269 310 10,800  Level Memphis Center
07:19 34.2597 -92.5509 202° Southwest  Level Estimated
07:19 34.4383 -92.2233 187° South 300 345 12,200  Level Memphis Center
07:20 34.3400 -92.2436 190° South 341 392 14,100 1,920 Climbing Memphis Center
07:21 34.2417 -92.2642 190° South 360 414 16,100 1,980 Climbing Memphis Center
07:22 34.1456 -92.2797 188° South 360 414 18,100 1,800 Climbing Memphis Center
07:23 34.0511 -92.3025 191° South 355 409 19,800 1,620 Climbing Memphis Center
07:24 33.9528 -92.3206 189° South 355 409 21,400 1,080 Climbing Memphis Center
07:25 33.8503 -92.3381 188° South 355 409 22,000 360 Climbing Memphis Center
07:25 33.7853 -92.3506 189° South 372 428 22,000  Level Fort Worth Center
07:26 33.6692 -92.3697 188° South 394 453 22,000  Level Fort Worth Center
07:27 33.5594 -92.3908 189° South 406 467 22,000  Level Fort Worth Center
07:28 33.4414 -92.4125 189° South 417 480 22,000  Level Fort Worth Center
07:29 33.3317 -92.4336 189° South 423 487 22,000  Level Fort Worth Center
07:30 33.2350 -92.4714 198° South 416 479 22,000  Level Fort Worth Center
07:31 33.1394 -92.5364 210° Southwest 396 456 22,000  Level Fort Worth Center
07:32 33.0417 -92.5986 208° Southwest 396 456 22,000  Level Fort Worth Center
07:33 32.9458 -92.6583 208° Southwest 396 456 22,000  Level Fort Worth Center
07:34 32.8503 -92.7203 209° Southwest 396 456 22,000  Level Fort Worth Center
07:35 32.7544 -92.7819 208° Southwest 402 463 22,000  Level Fort Worth Center
07:36 32.6544 -92.8439 208° Southwest 402 463 22,000  Level Fort Worth Center
07:37 32.5586 -92.9056 208° Southwest 402 463 22,000  Level Fort Worth Center
07:38 32.4564 -92.9697 208° Southwest 402 463 22,000  Level Fort Worth Center
07:39 32.3564 -93.0361 209° Southwest 408 470 22,000  Level Fort Worth Center
07:40 32.2583 -93.0972 208° Southwest 408 470 22,000  Level Fort Worth Center
07:41 32.1622 -93.1533 206° Southwest 398 458 22,000  Level Fort Worth Center
07:42 32.0622 -93.2217 210° Southwest 405 466 22,000  Level Fort Worth Center
07:43 31.9642 -93.2825 208° Southwest 405 466 22,000  Level Fort Worth Center
07:45 31.8467 -93.3547 208° Southwest 407 468 22,000  Level Houston Center
07:46 31.7481 -93.4164 208° Southwest 405 466 22,000  Level Houston Center
07:47 31.6483 -93.4781 208° Southwest 405 466 22,000  Level Houston Center
07:48 31.5289 -93.5514 208° Southwest 407 468 22,000  Level Houston Center
07:49 31.4417 -93.6053 208° Southwest 407 468 22,000  Level Houston Center
07:50 31.3414 -93.6675 208° Southwest 406 467 22,000  Level Houston Center
07:51 31.2325 -93.7339 208° Southwest 406 467 22,000  Level Houston Center
07:52 31.1336 -93.7950 208° Southwest 403 464 22,000  Level Houston Center
07:53 31.0369 -93.8539 208° Southwest 394 453 22,000  Level Houston Center
07:54 30.9406 -93.9133 208° Southwest 392 451 22,000  Level Houston Center
07:55 30.8433 -93.9728 208° Southwest 396 456 22,000 -360 Level Houston Center
07:56 30.7444 -94.0331 208° Southwest 402 463 21,300 -960 Descending Houston Center
07:57 30.6481 -94.0919 208° Southwest 395 455 20,100 -1,200 Descending Houston Center
07:58 30.5511 -94.1506 208° Southwest 395 455 18,900 -1,440 Descending Houston Center
07:59 30.4558 -94.2089 208° Southwest 391 450 17,200 -2,040 Descending Houston Center
08:00 30.3461 -94.2753 208° Southwest 377 434 14,800 -2,100 Descending Houston Center
08:01 30.2306 -94.3506 209° Southwest 363 418 12,400 -1,680 Descending Houston Center
08:02 30.1842 -94.4089 227° Southwest 362 417 11,500 -1,200 Descending Houston Center
08:02 30.1700 -94.4408 243° Southwest 331 381 11,200 -1,140 Descending Houston Center
08:03 30.1486 -94.4972 246° West 328 377 10,400 -1,320 Descending Houston Center
08:03 30.1350 -94.5322 246° West 300 345 9,900 -1,440 Descending Houston Center
08:04 30.1172 -94.5817 247° West 292 336 9,000 -1,440 Descending Houston Center
08:04 30.1075 -94.6181 253° West 280 322 8,500 -1,020 Descending Houston Center
08:05 30.0981 -94.6683 258° West 280 322 8,000 -540 Descending Houston Center
08:05 30.0886 -94.7050 253° West 282 325 8,000 -600 Level Houston Center
08:06 30.0783 -94.7558 257° West 282 325 7,400 -1,200 Descending Houston Center
08:06 30.0681 -94.7969 254° West 281 323 6,800 -1,500 Descending Houston Center
08:07 30.0606 -94.8433 259° West 281 323 5,900 -1,620 Descending Houston Center
08:07 30.0511 -94.8836 255° West 279 321 5,200 -1,500 Descending Houston Center
08:08 30.0447 -94.9300 261° West 278 320 4,400 -1,380 Descending Houston Center
08:08 30.0347 -94.9775 256° West 275 316 3,700 -1,020 Descending Houston Center
08:09 30.0169 -95.0544 255° West 274 315 3,100 -480 Descending Houston Center
08:10 30.0028 -95.1131 254° West 270 311 3,000  Descending Houston Center
08:10 29.9950 -95.1344 247° West 257 296 3,100 -600 Climbing Houston Center
08:11 29.9933 -95.1908 268° West 249 287 2,400 -1,080 Descending Houston Center
08:11 29.9928 -95.2239 269° West 236 272 1,900 -1,320 Descending Houston Center